Terminal Aerodrome Forecast
Issued by NWS

Home | Current Version | Previous Version | Text Only | Print | Product List | Glossary On
Versions: 1 2 3 4 5 6 7 8 9 10 11 12 13 14 15 16 17
542
FTUS46 KSGX 202332
TAFSNA
TAF
KSNA 202332Z 2100/2124 24009KT P6SM -SHRA SCT025 BKN040
     FM210800 23010G18KT P6SM VCSH SCT025 BKN040
     FM211900 28010KT P6SM SCT030 BKN050=

USA.gov is the U.S. government's official web portal to all federal, state and local government web resources and services.